Kezdőlap
METAR-TAF:

METAR-TAF

Repülőterek :

Tekamah Municipal Airport

Tekamah, Nebraska, Amerikai Egyesült Államok

földrajzi szélesség: 41-46-01N, földrajzi hosszúság: 096-10-40W, magasság: 313 m

Jelenlegi meteorológiai megfigyelések

A jelentés 15 perccel ezelõtt készült, 14:54 UTC
Kelet-délkeleti szél 4 kt
Hőmérséklet -9°C
Páratartalom 73%
Légköri nyomás 1019 hPa
Látótávolság: 16.1 km
Szakadozott felhőzet 4800 lábon
Borult 6000 lábon

METAR: KTQE 151454Z AUTO 12004KT 10SM BKN048 OVC060 M09/M13 A3009 RMK AO2 SLP203 T10941133 55002 $

Idő: 09:09 (15:09 UTC)


TAF: hiányzik

Meteorológiai megfigyelések és előrejelzések több, mint 4000 repülőtéren (METAR és TAF jelentéseket).

A térképen piros és sárga pontok jelzik az elérhető meteorológiai állomásokat.

Mozgassa az egeret a pont fölött, hogy megjelenjen az állomás neve.

Azután kattintson az időjárási megfigyelések és előrejelzések megtekintéséhez.

A térkép megváltoztatása: kattintson a fekete keresztel jelölt zöld gombra ráközelítéshez, a vonallal jelölt zöld gombra távolításhoz, vagy a zöld nyilakra a szomszédos térképek eléréséhez.


METAR-TAF: